createdAt,value
2023-02-06T00:01:24.234Z,71.62
2023-02-06T00:03:51.277Z,71.51
2023-02-06T00:06:18.362Z,71.52
2023-02-06T00:08:45.543Z,71.54
2023-02-06T00:11:16.701Z,71.79
2023-02-06T00:13:45.331Z,71.45
2023-02-06T00:16:25.703Z,71.08
2023-02-06T00:18:54.090Z,71.27
2023-02-06T00:21:24.462Z,70.79
2023-02-06T00:23:54.026Z,71.18
2023-02-06T00:26:21.049Z,71.08
2023-02-06T00:28:48.160Z,70.81
2023-02-06T00:31:15.797Z,70.97
2023-02-06T00:33:42.825Z,70.57
2023-02-06T00:36:10.106Z,70.81
2023-02-06T00:38:38.049Z,70.76
2023-02-06T00:41:05.513Z,70.83
2023-02-06T00:43:32.797Z,70.93
2023-02-06T00:45:59.611Z,70.56
2023-02-06T00:48:26.525Z,70.59
2023-02-06T00:50:54.171Z,70.47
2023-02-06T00:53:21.831Z,70.62
2023-02-06T00:55:48.660Z,70.38
2023-02-06T00:58:15.601Z,70.33
2023-02-06T01:00:42.397Z,70.35
2023-02-06T01:03:09.312Z,70.51
2023-02-06T01:05:36.505Z,70.18
2023-02-06T01:08:04.599Z,70.57
2023-02-06T01:10:32.470Z,70.41
2023-02-06T01:12:59.379Z,70.65
2023-02-06T01:15:26.199Z,70.69
2023-02-06T01:17:53.020Z,70.67
2023-02-06T01:20:21.489Z,70.81
2023-02-06T01:22:48.286Z,70.43
2023-02-06T01:25:15.281Z,70.66
2023-02-06T01:27:42.087Z,70.79
2023-02-06T01:30:11.094Z,70.81
2023-02-06T01:32:40.011Z,71.05
2023-02-06T01:35:09.425Z,71.07
2023-02-06T01:37:37.923Z,71.00
2023-02-06T01:40:07.645Z,71.05
2023-02-06T01:42:37.324Z,70.86
2023-02-06T01:45:45.269Z,70.84
2023-02-06T01:48:19.196Z,70.70
2023-02-06T01:50:51.808Z,70.42
2023-02-06T01:53:21.105Z,70.02
2023-02-06T01:55:50.647Z,69.91
2023-02-06T01:58:26.529Z,69.66
2023-02-06T02:00:53.750Z,69.69
2023-02-06T02:03:21.100Z,69.87
2023-02-06T02:05:50.562Z,69.58
2023-02-06T02:08:32.289Z,68.86
2023-02-06T02:11:00.454Z,68.47
2023-02-06T02:13:27.317Z,68.45
2023-02-06T02:16:30.817Z,68.46
2023-02-06T02:19:23.589Z,68.09
2023-02-06T02:22:18.448Z,68.01
2023-02-06T02:25:32.018Z,67.60
2023-02-06T02:28:42.584Z,67.58
2023-02-06T02:31:36.590Z,67.61
2023-02-06T02:34:44.868Z,68.09
2023-02-06T02:37:46.567Z,67.92
2023-02-06T02:40:24.349Z,67.81
2023-02-06T02:43:44.942Z,67.81
2023-02-06T02:46:35.124Z,68.05
2023-02-06T02:49:08.968Z,67.95
2023-02-06T02:51:38.351Z,67.81
2023-02-06T02:54:05.475Z,67.84
2023-02-06T02:56:33.572Z,67.81
2023-02-06T02:59:25.536Z,67.86
2023-02-06T03:02:13.154Z,67.77
2023-02-06T03:04:56.685Z,67.89
2023-02-06T03:08:07.486Z,68.07
2023-02-06T03:10:42.449Z,68.32
2023-02-06T03:13:24.745Z,68.58
2023-02-06T03:16:14.136Z,68.58
2023-02-06T03:18:48.489Z,68.96
2023-02-06T03:21:19.905Z,69.24
2023-02-06T03:23:50.365Z,69.24
2023-02-06T03:26:21.026Z,68.87
2023-02-06T03:28:52.930Z,69.17
2023-02-06T03:31:27.876Z,68.79
2023-02-06T03:34:33.869Z,68.99
2023-02-06T03:37:00.764Z,68.60
2023-02-06T03:39:27.836Z,68.83
2023-02-06T03:41:56.960Z,68.87
2023-02-06T03:44:30.716Z,68.96
2023-02-06T03:46:59.750Z,68.89
2023-02-06T03:49:29.903Z,69.01
2023-02-06T03:52:13.989Z,68.98
2023-02-06T03:54:48.362Z,69.18
2023-02-06T03:57:19.343Z,69.05
2023-02-06T03:59:46.984Z,69.13
2023-02-06T04:02:15.098Z,69.45
2023-02-06T04:04:43.134Z,68.99
2023-02-06T04:07:19.474Z,69.30
2023-02-06T04:09:46.460Z,69.50
2023-02-06T04:12:13.335Z,69.47
2023-02-06T04:14:40.149Z,69.73
2023-02-06T04:17:07.693Z,69.81
2023-02-06T04:19:35.325Z,69.32
2023-02-06T04:22:02.739Z,69.15
2023-02-06T04:24:31.009Z,69.37
2023-02-06T04:26:58.513Z,69.63
2023-02-06T04:29:26.071Z,69.73
2023-02-06T04:31:52.877Z,69.49
2023-02-06T04:34:19.783Z,69.70
2023-02-06T04:36:46.635Z,70.20
2023-02-06T04:39:13.540Z,70.18
2023-02-06T04:41:40.405Z,70.35
2023-02-06T04:44:07.227Z,70.09
2023-02-06T04:46:34.042Z,70.03
2023-02-06T04:49:00.837Z,69.99
2023-02-06T04:51:27.749Z,69.86
2023-02-06T04:53:54.643Z,70.04
2023-02-06T04:56:21.501Z,70.32
2023-02-06T04:58:48.375Z,70.73
2023-02-06T05:01:16.969Z,70.62
2023-02-06T05:03:44.089Z,70.63
2023-02-06T05:06:11.298Z,70.39
2023-02-06T05:08:38.553Z,70.41
2023-02-06T05:11:06.130Z,70.10
2023-02-06T05:13:34.357Z,69.92
2023-02-06T05:16:15.395Z,69.83
2023-02-06T05:18:44.630Z,69.73
2023-02-06T05:21:13.169Z,69.86
2023-02-06T05:23:40.337Z,70.04
2023-02-06T05:26:07.168Z,70.11
2023-02-06T05:28:34.026Z,70.09
2023-02-06T05:31:02.565Z,70.19
2023-02-06T05:33:29.904Z,70.33
2023-02-06T05:36:07.737Z,70.27
2023-02-06T05:38:34.661Z,70.44
2023-02-06T05:41:01.565Z,70.27
2023-02-06T05:43:28.411Z,70.48
2023-02-06T05:45:55.281Z,70.82
2023-02-06T05:48:22.103Z,70.35
2023-02-06T05:50:49.841Z,70.54
2023-02-06T05:53:17.866Z,70.53
2023-02-06T05:55:44.712Z,70.88
2023-02-06T05:58:11.642Z,70.69
2023-02-06T06:00:38.591Z,70.29
2023-02-06T06:03:05.459Z,70.27
2023-02-06T06:05:32.340Z,70.50
2023-02-06T06:07:59.171Z,70.47
2023-02-06T06:10:26.007Z,70.39
2023-02-06T06:12:52.825Z,70.50
2023-02-06T06:15:19.728Z,70.85
2023-02-06T06:17:46.498Z,70.51
2023-02-06T06:20:13.536Z,70.77
2023-02-06T06:22:40.787Z,70.75
2023-02-06T06:25:08.061Z,71.00
2023-02-06T06:27:34.860Z,70.79
2023-02-06T06:30:01.773Z,70.93
2023-02-06T06:32:28.566Z,71.27
2023-02-06T06:34:55.408Z,71.52
2023-02-06T06:37:22.196Z,71.70
2023-02-06T06:39:49.030Z,71.80
2023-02-06T06:42:15.847Z,71.89
2023-02-06T06:44:42.655Z,71.52
2023-02-06T06:47:10.747Z,71.24
2023-02-06T06:49:37.723Z,71.11
2023-02-06T06:52:08.873Z,71.03
2023-02-06T06:54:40.351Z,71.32
2023-02-06T06:57:07.187Z,70.67
2023-02-06T06:59:33.975Z,70.84
2023-02-06T07:02:00.807Z,71.00
2023-02-06T07:04:31.306Z,70.70
2023-02-06T07:06:58.249Z,70.51
2023-02-06T07:09:25.434Z,69.88
2023-02-06T07:11:52.226Z,69.28
2023-02-06T07:14:19.233Z,70.10
2023-02-06T07:16:46.100Z,69.89
2023-02-06T07:19:12.968Z,68.00
2023-02-06T07:21:39.971Z,68.76
2023-02-06T07:24:07.093Z,68.73
2023-02-06T07:26:34.244Z,68.53
2023-02-06T07:29:01.158Z,69.63
2023-02-06T07:31:28.013Z,68.87
2023-02-06T07:33:54.905Z,67.90
2023-02-06T07:36:21.739Z,68.48
2023-02-06T07:38:48.973Z,67.79
2023-02-06T07:41:17.827Z,66.03
2023-02-06T07:43:44.744Z,65.72
2023-02-06T07:46:11.685Z,64.59
2023-02-06T07:48:38.610Z,65.58
2023-02-06T07:51:09.484Z,64.22
2023-02-06T07:53:37.345Z,64.79
2023-02-06T07:56:16.950Z,64.11
2023-02-06T07:58:43.975Z,62.81
2023-02-06T08:01:11.279Z,63.58
2023-02-06T08:03:38.333Z,62.78
2023-02-06T08:06:24.935Z,62.32
2023-02-06T08:08:55.330Z,62.47
2023-02-06T08:11:25.200Z,62.15
2023-02-06T08:13:52.044Z,61.57
2023-02-06T08:16:22.082Z,60.29
2023-02-06T08:18:49.187Z,58.67
2023-02-06T08:21:20.730Z,56.88
2023-02-06T08:23:53.884Z,54.36
2023-02-06T08:26:21.907Z,53.04
2023-02-06T08:28:50.437Z,51.83
2023-02-06T08:31:33.290Z,52.45
2023-02-06T08:34:01.137Z,50.96
2023-02-06T08:36:32.593Z,50.06
2023-02-06T08:39:00.760Z,50.18
2023-02-06T08:41:32.778Z,49.44
2023-02-06T08:44:01.863Z,49.37
2023-02-06T08:46:32.103Z,50.32
2023-02-06T08:49:07.186Z,50.36
2023-02-06T08:51:35.533Z,49.81
2023-02-06T08:54:06.875Z,49.42
2023-02-06T08:56:35.693Z,48.82
2023-02-06T08:59:03.429Z,47.43
2023-02-06T09:01:33.509Z,48.82
2023-02-06T09:04:04.815Z,47.39
2023-02-06T09:06:31.902Z,48.19
2023-02-06T09:08:59.022Z,47.13
2023-02-06T09:11:27.142Z,46.54
2023-02-06T09:13:59.826Z,46.07
2023-02-06T09:16:29.134Z,44.05
2023-02-06T09:19:01.246Z,44.95
2023-02-06T09:21:32.027Z,45.32
2023-02-06T09:24:02.348Z,44.14
2023-02-06T09:26:38.895Z,43.82
2023-02-06T09:29:09.804Z,43.46
2023-02-06T09:31:39.526Z,44.43
2023-02-06T09:34:07.577Z,44.26
2023-02-06T09:36:35.146Z,44.32
2023-02-06T09:39:06.191Z,46.13
2023-02-06T09:41:43.018Z,45.17
2023-02-06T09:44:24.742Z,47.42
2023-02-06T09:46:57.604Z,47.45
2023-02-06T09:49:37.616Z,47.23
2023-02-06T09:52:23.236Z,47.05
2023-02-06T09:54:55.851Z,45.65
2023-02-06T09:57:37.628Z,44.49
2023-02-06T10:00:37.928Z,44.64
2023-02-06T10:03:37.468Z,44.88
2023-02-06T10:06:22.853Z,44.86
2023-02-06T10:08:56.943Z,44.49
2023-02-06T10:11:29.522Z,46.61
2023-02-06T10:14:02.042Z,46.63
2023-02-06T10:16:55.739Z,47.12
2023-02-06T10:19:46.623Z,47.39
2023-02-06T10:22:21.184Z,47.53
2023-02-06T10:25:03.069Z,47.92
2023-02-06T10:27:32.874Z,48.54
2023-02-06T10:30:01.477Z,48.81
2023-02-06T10:32:40.208Z,49.29
2023-02-06T10:35:29.789Z,49.79
2023-02-06T10:38:18.205Z,50.83
2023-02-06T10:41:04.816Z,52.14
2023-02-06T10:43:55.262Z,51.39
2023-02-06T10:46:41.518Z,51.13
2023-02-06T10:49:38.374Z,51.97
2023-02-06T10:52:27.563Z,52.07
2023-02-06T10:54:59.608Z,51.83
2023-02-06T10:57:30.924Z,51.07
2023-02-06T11:00:04.270Z,51.25
2023-02-06T11:02:44.176Z,52.10
2023-02-06T11:05:19.266Z,52.72
2023-02-06T11:07:51.575Z,52.75
2023-02-06T11:10:23.766Z,52.78
2023-02-06T11:13:12.648Z,52.93
2023-02-06T11:15:54.822Z,53.38
2023-02-06T11:18:28.947Z,54.33
2023-02-06T11:20:56.063Z,53.22
2023-02-06T11:23:27.688Z,52.64
2023-02-06T11:26:14.395Z,52.16
2023-02-06T11:29:17.947Z,53.61
2023-02-06T11:31:51.458Z,54.06
2023-02-06T11:35:05.075Z,53.76
2023-02-06T11:37:39.535Z,54.20
2023-02-06T11:40:18.361Z,53.87
2023-02-06T11:42:48.159Z,53.82
2023-02-06T11:45:24.986Z,53.57
2023-02-06T11:47:52.349Z,54.51
2023-02-06T11:50:37.001Z,55.36
2023-02-06T11:53:17.114Z,55.77
2023-02-06T11:55:46.870Z,56.18
2023-02-06T11:58:13.600Z,56.55
2023-02-06T12:00:52.571Z,56.13
2023-02-06T12:03:27.921Z,55.92
2023-02-06T12:05:59.579Z,55.58
2023-02-06T12:08:47.292Z,54.98
2023-02-06T12:11:24.759Z,54.92
2023-02-06T12:14:37.504Z,55.32
2023-02-06T12:17:16.797Z,55.63
2023-02-06T12:20:05.316Z,55.83
2023-02-06T12:22:40.347Z,55.62
2023-02-06T12:25:27.449Z,55.62
2023-02-06T12:28:14.422Z,56.52
2023-02-06T12:30:55.644Z,56.41
2023-02-06T12:33:34.968Z,56.62
2023-02-06T12:36:27.869Z,55.69
2023-02-06T12:39:17.541Z,55.35
2023-02-06T12:42:03.033Z,55.20
2023-02-06T12:44:51.078Z,55.54
2023-02-06T12:47:29.370Z,54.84
2023-02-06T12:50:25.232Z,54.18
2023-02-06T12:53:02.814Z,53.98
2023-02-06T12:55:37.094Z,53.65
2023-02-06T12:58:04.750Z,53.01
2023-02-06T13:00:49.557Z,53.31
2023-02-06T13:03:31.327Z,53.17
2023-02-06T13:06:23.081Z,51.87
2023-02-06T13:09:04.136Z,52.12
2023-02-06T13:11:40.529Z,52.54
2023-02-06T13:14:19.861Z,53.27
2023-02-06T13:17:36.498Z,53.86
2023-02-06T13:20:18.576Z,53.40
2023-02-06T13:23:11.411Z,52.92
2023-02-06T13:25:38.398Z,53.31
2023-02-06T13:28:23.335Z,52.34
2023-02-06T13:31:09.220Z,52.29
2023-02-06T13:33:55.774Z,52.52
2023-02-06T13:36:49.053Z,50.45
2023-02-06T13:39:29.795Z,49.18
2023-02-06T13:42:01.032Z,48.89
2023-02-06T13:44:38.348Z,48.17
2023-02-06T13:47:38.407Z,48.46
2023-02-06T13:50:07.143Z,46.61
2023-02-06T13:53:18.562Z,44.97
2023-02-06T13:55:48.605Z,43.69
2023-02-06T13:58:20.880Z,43.07
2023-02-06T14:00:51.244Z,42.70
2023-02-06T14:03:32.684Z,41.26
2023-02-06T14:06:11.383Z,41.96
2023-02-06T14:09:10.447Z,42.83
2023-02-06T14:12:34.928Z,41.28
2023-02-06T14:15:08.586Z,37.05
2023-02-06T14:18:07.193Z,31.90
2023-02-06T14:20:49.830Z,30.19
2023-02-06T14:23:47.225Z,29.07
2023-02-06T14:27:00.838Z,26.74
2023-02-06T14:30:04.969Z,26.70
2023-02-06T14:32:56.404Z,29.79
2023-02-06T14:35:55.224Z,32.99
2023-02-06T14:38:55.731Z,35.55
2023-02-06T14:41:22.986Z,37.53
2023-02-06T14:43:51.052Z,38.94
2023-02-06T14:46:19.560Z,39.20
2023-02-06T14:48:58.555Z,39.48
2023-02-06T14:51:38.904Z,41.35
2023-02-06T14:54:27.664Z,42.10
2023-02-06T14:57:03.460Z,43.48
2023-02-06T14:59:31.481Z,44.94
2023-02-06T15:01:59.889Z,45.66
2023-02-06T15:04:30.784Z,46.48
2023-02-06T15:07:02.613Z,47.53
2023-02-06T15:09:37.820Z,48.37
2023-02-06T15:12:24.835Z,48.92
2023-02-06T15:14:55.034Z,49.88
2023-02-06T15:17:26.391Z,50.96
2023-02-06T15:19:53.354Z,51.33
2023-02-06T15:22:29.519Z,51.31
2023-02-06T15:25:15.008Z,52.14
2023-02-06T15:27:41.909Z,52.13
2023-02-06T15:30:24.003Z,52.91
2023-02-06T15:32:54.075Z,52.70
2023-02-06T15:35:32.308Z,52.86
2023-02-06T15:38:25.044Z,52.81
2023-02-06T15:40:58.063Z,53.83
2023-02-06T15:43:26.928Z,54.38
2023-02-06T15:45:57.946Z,54.83
2023-02-06T15:48:51.395Z,55.15
2023-02-06T15:51:26.605Z,55.70
2023-02-06T15:54:20.812Z,56.19
2023-02-06T15:57:02.901Z,55.77
2023-02-06T15:59:33.312Z,56.03
2023-02-06T16:02:01.074Z,56.44
2023-02-06T16:04:35.660Z,56.81
2023-02-06T16:07:07.409Z,56.53
2023-02-06T16:10:04.550Z,56.75
2023-02-06T16:12:41.728Z,57.10
2023-02-06T16:15:35.184Z,56.75
2023-02-06T16:18:23.354Z,56.80
2023-02-06T16:20:50.796Z,56.61
2023-02-06T16:23:44.618Z,56.72
2023-02-06T16:26:19.955Z,57.25
2023-02-06T16:29:09.762Z,56.82
2023-02-06T16:31:43.216Z,56.84
2023-02-06T16:34:44.085Z,57.17
2023-02-06T16:37:22.137Z,57.04
2023-02-06T16:39:49.697Z,56.83
2023-02-06T16:42:27.149Z,56.90
2023-02-06T16:44:59.516Z,57.24
2023-02-06T16:47:27.295Z,57.55
2023-02-06T16:49:54.131Z,57.99
2023-02-06T16:52:31.486Z,58.68
2023-02-06T16:54:59.048Z,58.75
2023-02-06T16:57:36.500Z,58.83
2023-02-06T17:00:09.438Z,58.95
2023-02-06T17:02:36.700Z,59.10
2023-02-06T17:05:04.921Z,59.46
2023-02-06T17:07:34.909Z,59.74
2023-02-06T17:10:02.238Z,59.46
2023-02-06T17:12:30.376Z,60.46
2023-02-06T17:14:58.357Z,60.34
2023-02-06T17:17:25.275Z,60.81
2023-02-06T17:19:53.698Z,61.28
2023-02-06T17:22:20.721Z,61.02
2023-02-06T17:24:47.761Z,61.25
2023-02-06T17:27:19.047Z,61.53
2023-02-06T17:29:47.550Z,61.26
2023-02-06T17:32:16.143Z,61.24
2023-02-06T17:34:43.147Z,61.42
2023-02-06T17:37:20.389Z,61.44
2023-02-06T17:39:49.489Z,61.44
2023-02-06T17:42:16.446Z,61.47
2023-02-06T17:44:44.288Z,61.56
2023-02-06T17:47:13.108Z,61.81
2023-02-06T17:49:41.479Z,61.78
2023-02-06T17:52:08.410Z,61.84
2023-02-06T17:54:35.668Z,62.01
2023-02-06T17:57:02.621Z,62.05
2023-02-06T17:59:29.455Z,62.27
2023-02-06T18:01:56.470Z,61.93
2023-02-06T18:04:24.565Z,62.30
2023-02-06T18:06:51.535Z,61.85
2023-02-06T18:09:18.518Z,62.11
2023-02-06T18:11:45.510Z,61.94
2023-02-06T18:14:12.629Z,61.89
2023-02-06T18:16:42.724Z,62.26
2023-02-06T18:19:10.545Z,62.26
2023-02-06T18:21:37.422Z,62.67
2023-02-06T18:24:05.439Z,62.34
2023-02-06T18:26:32.658Z,62.48
2023-02-06T18:29:03.678Z,62.12
2023-02-06T18:31:33.450Z,62.47
2023-02-06T18:34:03.885Z,62.64
2023-02-06T18:36:30.682Z,62.81
2023-02-06T18:38:57.698Z,62.74
2023-02-06T18:41:42.973Z,62.70
2023-02-06T18:44:11.217Z,62.31
2023-02-06T18:46:39.004Z,61.83
2023-02-06T18:49:06.636Z,62.01
2023-02-06T18:51:33.620Z,61.72
2023-02-06T18:54:03.713Z,61.82
2023-02-06T18:56:30.824Z,62.03
2023-02-06T18:58:57.704Z,61.84
2023-02-06T19:01:25.501Z,61.79
2023-02-06T19:03:53.541Z,61.53
2023-02-06T19:06:25.489Z,61.25
2023-02-06T19:08:52.300Z,61.40
2023-02-06T19:11:19.210Z,60.62
2023-02-06T19:13:46.261Z,60.69
2023-02-06T19:16:16.456Z,60.90
2023-02-06T19:18:47.602Z,60.87
2023-02-06T19:21:20.365Z,61.28
2023-02-06T19:23:58.950Z,61.53
2023-02-06T19:26:27.319Z,61.43
2023-02-06T19:28:54.214Z,60.95
2023-02-06T19:31:24.597Z,60.75
2023-02-06T19:33:54.640Z,60.66
2023-02-06T19:36:23.048Z,60.05
2023-02-06T19:38:57.327Z,59.77
2023-02-06T19:41:27.106Z,59.21
2023-02-06T19:43:56.115Z,59.43
2023-02-06T19:46:26.433Z,59.43
2023-02-06T19:48:54.770Z,59.26
2023-02-06T19:51:35.392Z,59.07
2023-02-06T19:54:02.818Z,59.53
2023-02-06T19:56:39.902Z,58.99
2023-02-06T19:59:17.895Z,58.97
2023-02-06T20:01:57.485Z,59.03
2023-02-06T20:04:29.721Z,59.79
2023-02-06T20:06:56.663Z,59.59
2023-02-06T20:09:24.764Z,59.51
2023-02-06T20:11:51.846Z,59.62
2023-02-06T20:14:19.907Z,60.53
2023-02-06T20:16:47.674Z,60.59
2023-02-06T20:19:18.999Z,60.38
2023-02-06T20:21:50.889Z,60.28
2023-02-06T20:24:24.008Z,61.03
2023-02-06T20:26:55.998Z,61.41
2023-02-06T20:29:33.780Z,61.16
2023-02-06T20:32:01.152Z,61.40
2023-02-06T20:34:28.774Z,61.56
2023-02-06T20:36:56.716Z,61.99
2023-02-06T20:39:24.317Z,61.88
2023-02-06T20:41:51.495Z,62.11
2023-02-06T20:44:20.764Z,62.29
2023-02-06T20:46:48.470Z,62.46
2023-02-06T20:49:27.384Z,63.13
2023-02-06T20:51:54.886Z,62.87
2023-02-06T20:54:22.605Z,63.29
2023-02-06T20:56:49.938Z,62.94
2023-02-06T20:59:19.852Z,62.90
2023-02-06T21:01:46.902Z,62.90
2023-02-06T21:04:15.385Z,62.82
2023-02-06T21:06:43.217Z,63.14
2023-02-06T21:09:11.676Z,63.67
2023-02-06T21:11:45.727Z,63.56
2023-02-06T21:14:13.677Z,64.00
2023-02-06T21:16:40.714Z,63.51
2023-02-06T21:19:10.119Z,64.02
2023-02-06T21:21:37.705Z,63.29
2023-02-06T21:24:05.365Z,63.36
2023-02-06T21:26:33.135Z,63.60
2023-02-06T21:29:02.435Z,63.36
2023-02-06T21:31:37.790Z,62.87
2023-02-06T21:34:25.965Z,63.70
2023-02-06T21:36:54.542Z,63.53
2023-02-06T21:39:26.790Z,64.22
2023-02-06T21:41:54.768Z,64.21
2023-02-06T21:44:24.121Z,64.62
2023-02-06T21:46:51.852Z,64.21
2023-02-06T21:49:19.562Z,64.01
2023-02-06T21:51:46.344Z,64.13
2023-02-06T21:54:13.229Z,64.20
2023-02-06T21:56:40.027Z,64.04
2023-02-06T21:59:07.646Z,63.78
2023-02-06T22:01:34.899Z,64.17
2023-02-06T22:04:03.590Z,63.92
2023-02-06T22:06:30.666Z,64.35
2023-02-06T22:09:05.099Z,64.50
2023-02-06T22:11:32.211Z,64.52
2023-02-06T22:14:06.794Z,64.48
2023-02-06T22:16:34.185Z,64.64
2023-02-06T22:19:00.975Z,65.75
2023-02-06T22:21:30.859Z,65.32
2023-02-06T22:24:04.471Z,64.96
2023-02-06T22:26:33.098Z,65.20
2023-02-06T22:29:00.599Z,64.87
2023-02-06T22:31:32.740Z,64.92
2023-02-06T22:34:00.688Z,65.07
2023-02-06T22:36:31.184Z,65.33
2023-02-06T22:39:01.952Z,65.35
2023-02-06T22:41:29.648Z,65.46
2023-02-06T22:43:56.588Z,65.70
2023-02-06T22:46:34.346Z,65.47
2023-02-06T22:49:01.573Z,65.47
2023-02-06T22:51:29.065Z,65.84
2023-02-06T22:53:56.344Z,66.14
2023-02-06T22:56:35.960Z,65.99
2023-02-06T22:59:16.771Z,66.68
2023-02-06T23:01:44.942Z,66.78
2023-02-06T23:04:25.070Z,67.13
2023-02-06T23:06:52.854Z,66.80
2023-02-06T23:09:26.539Z,66.53
2023-02-06T23:11:54.583Z,67.05
2023-02-06T23:14:21.705Z,66.87
2023-02-06T23:16:48.891Z,67.05
2023-02-06T23:19:17.426Z,66.97
2023-02-06T23:21:47.963Z,67.07
2023-02-06T23:24:15.503Z,66.81
2023-02-06T23:26:45.046Z,66.62
2023-02-06T23:29:15.807Z,66.88
2023-02-06T23:31:43.911Z,66.48
2023-02-06T23:34:11.151Z,66.25
2023-02-06T23:36:37.952Z,66.50
2023-02-06T23:39:05.980Z,65.85
2023-02-06T23:41:33.611Z,66.25
2023-02-06T23:44:06.876Z,66.19
2023-02-06T23:46:36.344Z,66.10
2023-02-06T23:49:04.038Z,65.87
2023-02-06T23:51:32.005Z,66.04
2023-02-06T23:53:59.132Z,65.38
2023-02-06T23:56:29.090Z,65.55
2023-02-06T23:58:57.854Z,65.26
